Date,TemperatureHighF,TemperatureAvgF,TemperatureLowF,DewpointHighF,DewpointAvgF,DewpointLowF,HumidityHigh,HumidityAvg,HumidityLow,PressureMaxIn,PressureMinIn,WindSpeedMaxMPH,WindSpeedAvgMPH,GustSpeedMaxMPH,PrecipitationSumIn
2013-1-1,65,57,48,63,56,46,99,95,92,30.16,29.93,17,3,20,1.50
2013-1-2,48,44,41,46,41,36,96,91,83,30.30,30.13,13,3,13,0.06
2013-1-3,54,43,38,38,35,32,84,72,49,30.43,30.27,13,2,14,0.00
2013-1-4,56,45,35,38,34,32,88,68,41,30.51,30.35,10,2,10,0.00
2013-1-5,54,47,44,45,40,36,96,76,55,30.40,30.26,11,1,11,0.04
2013-1-6,55,48,42,48,45,40,98,91,75,30.35,30.23,12,2,12,0.81
2013-1-7,60,49,36,44,41,35,98,76,51,30.36,30.18,14,2,14,0.01
2013-1-8,63,56,50,63,53,42,99,89,70,30.20,30.03,18,3,18,2.85
2013-1-9,67,64,61,67,64,61,100,99,98,30.17,30.06,16,4,17,0.77
2013-1-10,69,66,64,68,66,64,100,99,97,30.15,29.96,22,4,22,2.65
2013-1-11,72,67,63,72,66,61,100,96,81,30.09,29.97,11,2,11,0.08
2013-1-12,79,74,70,72,70,68,99,88,69,30.03,29.86,23,4,24,0.00
2013-1-13,77,63,46,72,60,45,98,93,74,30.15,29.77,34,5,35,1.19
2013-1-14,46,42,37,45,41,35,98,96,93,30.19,30.09,20,3,20,0.48
2013-1-15,42,40,37,42,40,36,98,98,96,30.12,29.99,15,3,15,0.61
2013-1-16,39,37,36,38,36,34,98,96,93,30.22,30.05,17,5,17,0.10
2013-1-17,54,43,33,38,36,32,98,79,51,30.47,30.21,20,4,20,0.01
2013-1-18,59,46,37,39,36,31,95,71,35,30.56,30.40,13,1,13,0.00
2013-1-19,65,50,35,49,43,34,98,81,56,30.42,30.25,10,1,10,0.00
2013-1-20,67,51,36,50,43,36,100,78,37,30.31,30.15,8,1,8,0.00
2013-1-21,68,53,40,51,45,39,99,78,46,30.27,30.17,10,1,10,0.01
2013-1-22,67,52,42,49,43,38,93,74,49,30.37,30.23,11,1,11,0.00
2013-1-23,72,57,42,54,48,41,99,76,43,30.42,30.28,13,2,15,0.00
2013-1-24,73,61,49,61,56,48,98,83,66,30.35,30.21,14,2,14,0.00
2013-1-25,76,64,54,62,58,53,98,83,60,30.25,30.12,18,3,18,0.00
2013-1-26,76,63,55,66,59,55,100,88,58,30.27,30.16,10,1,11,0.01
2013-1-27,77,65,53,64,59,52,100,83,57,30.27,30.15,16,2,16,0.01
2013-1-28,75,67,59,67,63,58,98,89,70,30.24,30.09,13,2,13,0.00
2013-1-29,79,72,65,71,68,64,99,88,73,30.10,29.72,22,5,22,0.06
2013-1-30,74,57,41,70,47,32,97,71,42,30.22,29.66,30,6,30,1.16
2013-1-31,61,48,34,40,34,25,98,63,27,30.36,30.22,12,2,12,0.00
2013-2-1,66,52,42,45,41,36,91,69,36,30.43,30.30,8,1,8,0.00
2013-2-2,71,57,43,54,49,42,97,77,47,30.34,30.18,16,2,16,0.00
2013-2-3,69,57,45,54,43,27,99,66,21,30.32,30.12,12,1,12,0.00
2013-2-4,61,53,44,55,48,38,98,84,69,30.12,29.94,9,1,9,0.03
2013-2-5,72,61,56,64,59,55,100,93,73,30.04,29.94,7,1,7,0.05
2013-2-6,68,59,53,63,58,53,100,95,84,30.12,29.97,15,2,15,0.23
2013-2-7,70,61,56,62,59,55,99,93,75,29.99,29.84,20,2,24,0.83
2013-2-8,68,59,54,61,56,50,100,90,77,30.19,29.97,15,3,15,0.01
2013-2-9,65,58,51,60,54,47,94,86,76,30.24,30.02,15,4,15,0.00
2013-2-10,78,69,61,72,66,59,99,91,75,30.02,29.86,22,4,30,0.11
2013-2-11,65,57,54,65,57,53,100,98,92,30.16,29.96,17,3,17,2.05
2013-2-12,68,59,54,68,58,52,100,98,92,30.06,29.72,22,4,25,0.17
2013-2-13,57,51,42,53,46,39,95,83,65,30.10,29.88,22,4,22,0.02
2013-2-14,59,47,37,44,40,36,99,78,47,30.19,30.07,11,1,11,0.00
2013-2-15,65,51,37,48,42,36,99,73,42,30.23,30.10,14,3,15,0.00
2013-2-16,53,46,36,43,31,22,85,57,35,30.38,30.23,20,5,20,0.00
2013-2-17,65,49,34,43,36,29,91,64,40,30.36,30.19,15,2,15,0.00
2013-2-18,68,58,45,63,53,41,96,82,63,30.23,29.94,20,4,21,0.86
2013-2-19,67,58,45,62,44,30,96,64,28,30.27,29.96,19,3,21,0.02
2013-2-20,60,51,42,42,34,28,72,54,35,30.27,30.00,17,4,17,0.00
2013-2-21,73,63,52,70,58,42,98,83,65,30.01,29.72,22,6,22,0.36
2013-2-22,72,62,57,70,55,48,95,79,63,30.02,29.85,22,2,22,0.19
2013-2-23,64,56,50,54,51,46,93,83,68,30.00,29.89,10,2,10,0.00
2013-2-24,72,57,44,59,52,42,98,83,57,30.01,29.73,18,3,22,0.56
2013-2-25,68,63,55,67,60,40,99,91,55,29.74,29.41,18,5,20,0.58
2013-2-26,60,52,46,46,40,35,91,65,52,29.95,29.60,25,6,27,0.00
2013-2-27,70,56,43,51,44,39,97,67,34,30.09,29.94,19,3,19,0.00
2013-2-28,52,47,43,40,36,32,79,65,49,30.20,30.09,13,3,14,0.00
2013-3-1,57,48,39,39,35,32,84,62,39,30.20,30.09,20,4,21,0.00
2013-3-2,44,39,30,35,31,27,94,75,56,30.30,30.19,19,3,19,0.00
2013-3-3,31,28,27,28,27,26,96,94,92,30.32,30.29,2,0,2,0.00
2013-3-4,71,66,48,59,56,46,92,71,57,30.10,29.91,25,6,25,0.00
2013-3-5,72,65,53,64,52,31,90,66,35,30.25,29.90,21,5,22,0.00
2013-3-6,61,50,41,34,30,27,71,48,28,30.39,30.24,17,3,17,0.00
2013-3-7,65,50,35,40,36,32,87,62,32,30.38,30.23,11,1,11,0.00
2013-3-8,71,56,38,50,43,37,98,66,37,30.32,30.14,13,1,13,0.00
2013-3-9,72,62,51,62,56,48,90,81,70,30.17,29.93,22,3,22,0.00
2013-3-10,79,66,54,67,62,53,98,86,63,29.97,29.82,33,5,33,1.08
2013-3-11,58,51,44,54,43,39,98,76,51,30.07,29.93,22,5,22,1.46
2013-3-12,65,52,38,42,39,35,98,66,36,30.25,30.07,13,2,13,0.00
2013-3-13,66,54,41,42,34,22,94,54,21,30.43,30.25,22,3,22,0.00
2013-3-14,70,55,38,46,35,29,83,52,27,30.46,30.29,13,2,14,0.00
2013-3-15,75,59,43,55,47,42,98,69,33,30.32,30.12,17,3,20,0.00
2013-3-16,77,63,48,60,54,47,100,76,43,30.13,29.93,19,3,20,0.00
2013-3-17,80,68,57,67,62,56,99,82,52,29.96,29.79,20,3,23,0.00
2013-3-18,84,74,68,70,67,62,94,80,59,29.92,29.74,18,4,18,0.01
2013-3-19,78,65,52,62,51,43,85,62,38,30.04,29.91,14,3,15,0.00
2013-3-20,72,60,50,55,42,29,90,53,22,30.19,30.00,18,3,20,0.05
2013-3-21,66,56,48,47,39,32,74,53,34,30.08,29.83,16,3,16,0.00
2013-3-22,80,67,56,70,62,47,97,84,68,29.89,29.72,14,3,14,0.03
2013-3-23,71,68,66,69,67,65,100,98,92,29.81,29.56,10,2,10,0.04
2013-3-24,69,59,47,69,48,31,100,72,35,30.08,29.61,26,7,28,0.02
2013-3-25,58,48,38,34,28,22,76,49,26,30.30,30.07,22,6,22,0.00
2013-3-26,54,45,33,32,28,24,86,52,34,30.46,30.30,19,3,19,0.00
2013-3-27,64,48,32,39,31,25,92,57,24,30.48,30.27,11,1,11,0.00
2013-3-28,72,55,37,48,41,36,97,64,32,30.37,30.22,11,1,12,0.00
2013-3-29,77,60,44,54,49,43,98,70,36,30.32,30.17,14,2,17,0.00
2013-3-30,77,64,53,62,57,52,99,81,53,30.20,30.01,19,2,19,0.00
2013-3-31,78,63,57,68,61,57,100,94,70,30.04,29.87,24,2,29,0.70
2013-4-1,78,63,53,63,58,53,100,83,50,30.11,29.95,9,1,9,0.01
2013-4-2,79,65,52,63,58,51,99,79,48,30.11,29.94,16,2,17,0.00
2013-4-3,67,60,53,64,58,51,99,95,86,30.04,29.74,25,2,25,1.72
2013-4-4,54,51,49,51,49,46,99,93,84,30.09,29.93,16,5,16,0.01
2013-4-5,69,56,48,54,48,45,92,78,54,30.22,30.06,16,4,16,0.00
2013-4-6,74,60,45,58,52,44,99,78,47,30.16,30.05,13,2,17,0.00
2013-4-7,80,68,58,64,60,55,96,78,52,30.09,29.94,17,2,17,0.00
2013-4-8,83,71,60,67,64,59,99,80,53,29.99,29.88,18,3,19,0.01
2013-4-9,86,76,68,75,71,65,96,85,66,29.97,29.87,22,4,22,0.00
2013-4-10,85,77,73,74,72,70,93,84,68,29.92,29.77,22,5,24,0.00
2013-4-11,75,63,52,72,60,51,98,91,79,29.86,29.67,23,4,23,0.74
2013-4-12,75,59,45,54,49,44,100,74,34,30.01,29.86,12,2,13,0.01
2013-4-13,79,65,49,55,51,46,97,65,34,30.05,29.84,17,2,19,0.00
2013-4-14,76,66,56,68,62,55,98,88,69,29.89,29.72,17,3,17,2.73
2013-4-15,79,72,64,75,70,63,99,92,78,29.94,29.80,12,2,13,0.02
2013-4-16,85,78,73,76,74,73,99,89,72,30.05,29.92,13,3,14,0.01
2013-4-17,86,78,73,76,73,72,97,85,69,30.05,29.89,16,3,16,0.00
2013-4-18,85,76,55,74,70,54,96,84,68,29.92,29.74,24,5,24,0.33
2013-4-19,60,53,47,54,44,38,96,74,48,30.21,29.91,25,5,25,0.03
2013-4-20,71,56,41,50,44,40,99,70,37,30.29,30.12,14,2,15,0.00
2013-4-21,75,61,45,53,48,44,99,68,35,30.24,30.10,12,2,14,0.01
2013-4-22,80,67,50,66,56,49,99,71,39,30.15,29.98,13,2,13,0.00
2013-4-23,84,74,67,70,68,65,95,82,60,30.05,29.93,18,3,18,0.00
2013-4-24,70,64,56,69,62,53,99,93,84,30.22,29.96,20,3,20,1.99
2013-4-25,74,62,52,58,52,48,95,74,44,30.33,30.21,12,2,14,0.00
2013-4-26,80,68,55,68,60,50,93,76,57,30.27,30.17,11,2,12,0.00
2013-4-27,83,73,65,71,67,64,100,83,57,30.19,29.99,14,2,15,0.00
2013-4-28,77,71,64,70,68,63,98,88,73,30.04,29.92,11,1,11,0.02
2013-4-29,84,71,58,68,63,57,100,79,45,29.98,29.85,9,0,10,0.01
2013-4-30,76,69,63,71,67,63,100,95,85,29.91,29.81,18,2,18,0.55
2013-5-1,80,70,66,72,68,65,100,93,74,29.91,29.81,18,1,18,0.10
2013-5-2,79,70,64,69,66,64,99,90,71,29.96,29.87,14,2,14,0.11
2013-5-3,67,54,44,67,51,43,99,90,72,30.07,29.93,23,6,23,0.05
2013-5-4,73,57,41,53,46,40,100,71,33,30.06,29.87,14,2,18,0.01
2013-5-5,65,56,49,54,46,41,95,69,48,30.05,29.91,20,4,20,0.00
2013-5-6,76,61,46,58,51,45,99,75,48,30.06,29.93,16,3,16,0.00
2013-5-7,82,68,54,62,58,53,99,75,43,30.06,29.98,12,1,12,0.00
2013-5-8,85,70,56,67,61,56,99,76,44,30.11,30.02,12,1,12,0.00
2013-5-9,85,73,62,70,66,61,100,80,51,30.09,29.98,10,2,15,0.00
2013-5-10,73,68,64,71,67,64,99,96,86,30.05,29.83,21,2,21,2.09
2013-5-11,80,70,63,71,66,63,100,88,73,30.07,29.90,14,1,14,0.23
2013-5-12,80,69,58,64,60,52,99,76,52,30.17,30.06,15,2,15,0.00
2013-5-13,82,66,50,60,52,47,97,65,32,30.31,30.17,14,1,14,0.00
2013-5-14,86,70,55,64,58,53,100,69,36,30.28,30.13,11,1,11,0.00
2013-5-15,84,70,57,68,62,57,100,79,46,30.19,30.00,12,1,13,0.00
2013-5-16,85,73,63,70,66,62,99,79,50,30.04,29.88,16,2,16,0.00
2013-5-17,87,77,68,74,72,67,99,84,63,30.01,29.92,16,2,16,0.00
2013-5-18,88,79,73,75,73,69,98,81,59,30.04,29.96,13,2,13,0.00
2013-5-19,89,79,71,76,73,71,100,84,61,29.98,29.91,19,2,19,0.00
2013-5-20,91,81,74,77,75,73,98,83,62,29.99,29.87,14,3,14,0.00
2013-5-21,90,81,75,77,75,72,98,82,60,29.93,29.78,17,2,17,0.00
2013-5-22,82,74,68,74,71,67,99,91,74,29.98,29.84,17,2,20,0.76
2013-5-23,91,76,68,78,72,66,100,88,61,30.06,29.94,14,1,14,0.01
2013-5-24,91,78,66,78,71,65,100,82,58,30.15,30.03,11,1,12,0.00
2013-5-25,88,78,69,72,67,59,87,70,53,30.21,30.08,15,2,15,0.00
2013-5-26,89,77,69,73,70,63,98,79,49,30.17,30.05,10,1,10,0.00
2013-5-27,88,78,67,74,70,66,98,78,57,30.11,29.98,14,2,14,0.00
2013-5-28,87,77,68,77,71,68,98,83,63,30.05,29.95,19,2,20,0.00
2013-5-29,88,78,70,78,73,67,99,87,67,29.99,29.89,20,2,20,0.00
2013-5-30,88,80,74,79,75,73,99,85,67,29.98,29.88,15,3,16,0.00
2013-5-31,90,81,74,80,76,74,99,85,68,29.98,29.90,17,2,17,0.00
2013-6-1,91,82,74,78,75,73,99,82,61,29.95,29.87,13,2,13,0.00
2013-6-2,86,78,70,76,74,69,100,89,70,30.01,29.85,14,1,14,0.00
2013-6-3,90,81,73,76,74,72,99,81,60,29.92,29.83,10,1,10,0.00
2013-6-4,94,83,72,78,75,71,98,77,54,29.92,29.82,9,1,9,0.00
2013-6-5,94,82,74,79,76,73,100,83,58,29.91,29.77,10,1,10,0.00
2013-6-6,90,79,72,78,74,70,100,85,63,29.86,29.70,10,2,12,0.01
2013-6-7,86,77,71,73,71,69,99,83,58,29.88,29.80,10,2,11,0.02
2013-6-8,91,77,70,76,72,68,98,85,53,29.94,29.86,18,1,18,0.00
2013-6-9,91,78,71,78,73,70,99,87,59,29.96,29.85,20,1,21,0.00
2013-6-10,92,80,71,81,76,71,100,87,63,30.02,29.93,10,1,11,0.00
2013-6-11,94,84,75,80,76,72,100,80,52,30.08,29.98,9,1,9,0.00
2013-6-12,94,83,74,79,76,73,100,80,53,30.09,29.99,10,1,10,0.00
2013-6-13,94,83,72,79,75,72,100,80,53,30.06,29.90,14,2,14,0.00
2013-6-14,96,85,77,81,78,71,97,80,57,29.95,29.84,13,2,13,0.00
2013-6-15,95,84,73,78,73,68,89,73,53,30.00,29.90,9,1,9,0.00
2013-6-16,94,84,77,81,77,75,98,81,59,30.04,29.94,11,2,11,0.00
2013-6-17,93,82,73,80,76,72,99,82,54,30.02,29.90,16,2,16,0.05
2013-6-18,92,82,73,78,75,71,99,80,56,30.00,29.87,21,2,21,0.00
2013-6-19,84,77,72,78,74,71,99,92,77,30.06,29.93,10,1,10,0.00
2013-6-20,89,80,73,80,76,73,100,88,66,30.11,30.00,12,2,13,0.01
2013-6-21,93,81,72,78,75,71,100,84,59,30.11,30.03,11,1,12,0.00
2013-6-22,94,82,72,78,75,72,100,82,55,30.09,29.97,16,1,16,0.00
2013-6-23,94,81,73,79,75,72,100,83,51,30.05,29.97,11,1,11,0.00
2013-6-24,91,82,74,79,76,73,99,83,64,30.12,30.02,15,1,16,0.00
2013-6-25,93,83,72,78,75,71,100,79,52,30.07,29.96,11,1,11,0.00
2013-6-26,96,84,72,79,75,72,100,77,50,30.04,29.92,8,1,9,0.00
2013-6-27,95,84,73,80,76,72,99,80,55,30.01,29.89,12,2,13,0.00
2013-6-28,94,85,78,79,77,75,97,80,57,29.93,29.75,15,3,16,0.00
2013-6-29,88,81,70,82,78,68,100,91,76,29.87,29.68,27,2,31,0.00
2013-6-30,91,82,74,77,72,65,100,76,44,29.80,29.71,13,2,13,0.00
2013-7-1,87,78,68,72,69,66,97,76,53,29.92,29.80,13,2,13,0.00
2013-7-2,89,78,68,73,70,67,99,77,51,29.99,29.90,9,1,9,0.00
2013-7-3,91,77,69,75,70,67,94,81,48,30.01,29.93,15,1,17,0.00
2013-7-4,90,80,69,76,72,69,99,80,55,29.96,29.89,10,1,10,0.00
2013-7-5,88,79,73,78,74,70,95,85,67,29.99,29.92,21,2,24,0.00
2013-7-6,88,78,71,78,74,70,99,90,69,29.99,29.91,11,2,12,0.00
2013-7-7,89,80,75,80,76,74,99,89,68,30.07,29.95,15,2,17,0.00
2013-7-8,93,80,72,79,75,72,100,87,60,30.14,30.04,11,1,13,0.00
2013-7-9,94,83,73,79,76,72,100,82,57,30.18,30.06,9,1,9,0.00
2013-7-10,94,84,76,79,77,74,99,81,54,30.11,29.95,10,2,11,0.00
2013-7-11,90,80,74,79,76,72,98,87,64,30.00,29.90,15,2,16,0.00
2013-7-12,94,82,72,80,75,70,100,80,56,29.95,29.85,13,2,15,0.00
2013-7-13,93,82,70,74,71,67,97,72,45,29.95,29.86,10,1,11,0.00
2013-7-14,91,78,71,78,73,69,97,85,57,29.99,29.89,17,1,20,0.00
2013-7-15,86,77,73,79,74,70,99,92,75,30.12,29.96,24,2,24,0.00
2013-7-16,86,78,73,78,75,72,99,91,77,30.16,30.07,13,2,15,0.00
2013-7-17,92,82,75,79,76,74,99,83,58,30.21,30.09,14,2,15,0.00
2013-7-18,91,80,73,78,74,70,100,85,57,30.15,29.99,22,1,22,0.00
2013-7-19,88,79,71,79,75,70,99,87,68,30.06,29.93,11,1,11,0.00
2013-7-20,93,81,72,78,75,72,100,84,54,29.99,29.90,13,1,14,0.00
2013-7-21,86,79,74,79,75,72,100,89,72,30.06,29.95,9,2,26,0.00
2013-7-22,90,81,74,83,78,74,100,91,72,30.05,29.97,13,1,13,0.00
2013-7-23,93,83,75,80,77,75,100,84,58,30.05,29.91,13,2,13,0.00
2013-7-24,92,83,76,79,77,74,97,83,62,29.99,29.87,14,2,15,0.00
2013-7-25,92,82,74,78,76,73,98,83,62,30.04,29.92,11,1,11,0.00
2013-7-26,94,81,70,79,75,70,100,84,60,30.06,29.93,22,1,22,0.00
2013-7-27,87,79,75,81,77,72,99,95,79,29.96,29.85,27,2,27,0.00
2013-7-28,93,81,72,78,75,72,100,83,56,30.00,29.88,7,1,8,0.00
2013-7-29,93,83,73,81,77,73,100,85,61,30.09,29.99,11,1,11,0.00
2013-7-30,94,84,75,81,78,74,100,83,61,30.14,30.04,8,1,8,0.00
2013-7-31,94,84,75,80,77,74,99,83,59,30.09,29.94,7,1,11,0.00
2013-8-1,94,84,75,81,77,74,99,83,61,30.04,29.90,13,2,13,0.00
2013-8-2,98,85,75,82,78,73,98,81,56,29.99,29.91,8,1,8,0.00
2013-8-3,96,84,75,80,78,75,100,82,57,30.05,29.97,10,1,10,0.00
2013-8-4,97,84,75,81,77,74,100,83,49,30.09,29.96,13,1,13,0.00
2013-8-5,96,84,75,81,78,74,100,83,54,30.06,29.94,11,2,11,0.00
2013-8-6,96,85,76,80,78,75,100,81,55,30.01,29.88,11,2,12,0.00
2013-8-7,96,85,75,80,77,74,99,80,52,29.98,29.87,11,1,11,0.00
2013-8-8,96,86,75,81,78,74,99,80,56,29.97,29.86,11,1,11,0.00
2013-8-9,96,83,78,81,78,74,99,88,56,30.01,29.91,18,1,19,0.02
2013-8-10,96,83,76,82,77,74,99,85,51,30.06,29.96,22,1,22,0.00
2013-8-11,92,81,75,80,77,74,100,89,63,30.09,30.02,13,1,17,0.01
2013-8-12,92,80,75,81,78,74,100,92,63,30.10,29.99,14,1,16,0.00
2013-8-13,91,79,73,81,77,72,100,92,69,30.04,29.91,15,2,15,0.00
2013-8-14,80,76,73,78,75,72,100,97,90,29.98,29.91,9,1,9,0.00
2013-8-15,88,78,72,78,74,72,100,88,64,30.00,29.91,9,1,10,0.77
2013-8-16,90,80,71,77,73,70,98,81,57,29.99,29.91,11,1,11,0.00
2013-8-17,89,78,71,77,73,70,99,87,65,29.97,29.89,15,1,15,0.12
2013-8-18,87,77,69,75,72,69,99,85,64,30.01,29.93,14,1,16,0.01
2013-8-19,88,79,72,77,74,71,99,86,69,30.05,29.96,10,1,10,0.00
2013-8-20,92,79,72,79,74,72,100,87,58,30.06,29.97,14,1,14,0.00
2013-8-21,91,78,72,80,75,72,100,91,65,30.11,30.01,15,1,15,0.19
2013-8-22,92,82,74,80,76,74,100,85,60,30.09,29.95,10,1,11,0.04
2013-8-23,93,82,74,80,76,74,100,84,59,30.00,29.90,16,2,16,0.01
2013-8-24,86,79,73,78,75,73,99,86,71,30.07,29.95,16,2,16,0.01
2013-8-25,86,78,73,78,75,72,99,89,71,30.13,30.05,14,3,19,0.13
2013-8-26,89,78,74,78,75,73,99,92,68,30.17,30.08,16,2,17,0.62
2013-8-27,89,79,71,76,73,70,100,84,56,30.12,30.02,8,1,8,0.01
2013-8-28,90,78,67,73,70,67,100,80,51,30.09,29.99,8,1,8,0.00
2013-8-29,90,78,67,74,70,66,100,78,49,30.08,29.96,8,1,10,0.00
2013-8-30,93,80,69,76,72,68,100,80,51,30.04,29.92,8,1,8,0.00
2013-8-31,94,81,69,78,74,69,100,81,53,29.98,29.84,10,1,11,0.00
2013-9-1,96,83,73,79,76,71,100,81,51,29.94,29.83,11,1,11,0.00
2013-9-2,97,83,74,79,75,71,99,80,47,29.97,29.83,11,1,11,0.00
2013-9-3,96,82,75,80,76,74,99,86,55,29.98,29.86,14,1,14,0.00
2013-9-4,96,80,73,80,75,73,100,86,53,30.04,29.94,23,1,26,0.04
2013-9-5,94,81,73,80,76,73,100,86,56,30.09,30.01,11,1,12,0.00
2013-9-6,95,81,74,79,76,73,100,85,55,30.10,29.97,9,1,9,0.04
2013-9-7,94,79,72,79,74,69,100,86,51,30.05,29.94,22,1,22,0.30
2013-9-8,93,78,68,77,73,68,100,87,52,30.00,29.90,16,1,16,0.34
2013-9-9,93,80,69,78,74,69,100,83,53,30.04,29.94,12,1,12,0.01
2013-9-10,92,79,70,80,75,70,100,87,58,30.10,29.99,13,1,15,0.12
2013-9-11,93,81,73,78,74,72,100,82,53,30.11,30.00,12,1,12,0.01
2013-9-12,95,82,70,77,72,67,100,77,42,30.04,29.89,12,1,12,0.00
2013-9-13,97,81,72,77,73,71,99,80,45,29.93,29.78,15,1,16,0.56
2013-9-14,91,80,72,76,73,70,100,82,55,29.96,29.86,11,1,11,0.01
2013-9-15,94,82,71,76,73,70,98,79,48,30.04,29.94,10,1,12,0.00
2013-9-16,94,81,71,79,74,71,100,81,50,30.07,29.97,12,1,12,0.00
2013-9-17,95,82,72,77,74,71,100,80,49,30.07,29.92,13,1,13,0.00
2013-9-18,93,81,73,79,75,72,99,84,57,30.04,29.94,17,2,17,0.00
2013-9-19,89,80,74,79,76,73,96,88,66,30.01,29.93,16,2,16,0.02
2013-9-20,91,81,76,80,78,76,99,90,66,29.96,29.76,14,2,14,0.00
2013-9-21,81,74,69,78,74,68,100,97,85,29.79,29.71,16,1,17,2.87
2013-9-22,83,74,67,70,68,63,98,81,52,29.84,29.74,13,1,16,0.00
2013-9-23,89,76,64,78,70,61,96,85,67,29.83,29.75,11,1,12,0.03
2013-9-24,90,80,73,81,77,72,99,89,70,29.84,29.77,15,2,15,0.06
2013-9-25,90,76,67,74,68,59,100,79,37,29.85,29.76,11,2,11,0.01
2013-9-26,89,75,62,71,66,61,100,79,43,29.94,29.81,10,1,12,0.01
2013-9-27,90,77,66,74,69,65,100,80,49,30.01,29.91,8,1,8,0.00
2013-9-28,89,78,69,74,70,67,99,80,50,30.05,29.95,11,1,11,0.01
2013-9-29,84,75,67,74,71,67,100,88,66,30.02,29.90,5,0,6,0.00
2013-9-30,86,75,71,76,72,70,99,92,70,29.94,29.87,14,1,14,0.29
2013-10-1,86,75,70,77,73,69,100,95,71,30.00,29.91,16,1,16,1.56
2013-10-2,87,77,72,78,74,72,100,91,70,30.03,29.93,10,1,10,0.09
2013-10-3,87,79,73,79,76,73,100,91,73,30.01,29.90,10,1,10,0.01
2013-10-4,87,78,73,78,75,73,100,90,70,30.00,29.91,16,2,16,0.00
2013-10-5,84,78,74,79,75,73,100,92,80,29.96,29.86,16,2,19,0.13
2013-10-6,77,71,57,74,66,54,100,86,56,29.98,29.83,19,3,19,0.01
2013-10-7,76,64,54,59,56,53,96,77,53,30.06,29.97,14,2,14,0.01
2013-10-8,77,64,52,61,57,52,99,81,53,30.08,29.98,11,1,11,0.00
2013-10-9,82,66,51,65,58,51,100,81,48,30.10,30.01,9,1,9,0.01
2013-10-10,81,69,59,70,65,59,100,90,60,30.12,29.99,14,1,14,0.00
2013-10-11,87,72,60,75,68,59,100,88,59,30.04,29.93,10,1,10,0.01
2013-10-12,90,76,66,76,71,66,100,87,56,30.12,29.96,12,1,14,1.35
2013-10-13,89,77,70,75,72,69,100,88,56,30.16,30.01,8,1,8,0.04
2013-10-14,86,75,68,72,69,67,99,83,54,30.11,29.99,7,1,9,0.01
2013-10-15,86,74,65,74,70,64,100,87,62,30.04,29.92,10,1,10,0.00
2013-10-16,84,75,69,76,72,68,99,92,76,29.99,29.88,10,1,10,0.10
2013-10-17,74,66,58,72,64,58,99,94,85,30.04,29.92,12,2,13,0.00
2013-10-18,73,64,55,64,59,54,100,86,62,30.07,29.92,14,1,16,0.02
2013-10-19,74,65,58,64,61,56,99,88,64,30.05,29.91,13,2,15,0.63
2013-10-20,74,60,50,60,55,49,98,84,54,30.10,29.97,9,1,10,0.01
2013-10-21,72,63,54,66,60,54,100,92,79,30.07,29.92,5,1,8,0.01
2013-10-22,75,65,56,67,62,55,100,90,72,30.04,29.95,20,2,20,0.00
2013-10-23,76,61,50,58,54,49,100,80,43,30.14,30.04,10,1,10,0.01
2013-10-24,81,62,48,63,55,47,100,80,45,30.24,30.13,8,1,9,0.01
2013-10-25,70,59,51,58,50,45,98,74,46,30.41,30.22,15,2,15,0.00
2013-10-26,77,59,46,60,50,42,97,74,42,30.31,30.14,11,1,11,0.00
2013-10-27,73,62,51,67,60,50,100,93,80,30.15,30.04,10,1,11,0.01
2013-10-28,85,72,61,71,67,61,100,86,58,30.17,30.05,8,1,8,0.00
2013-10-29,82,71,63,71,66,62,100,87,64,30.21,30.12,11,2,14,0.01
2013-10-30,80,72,63,73,68,63,100,90,73,30.17,29.98,13,2,13,0.00
2013-10-31,80,71,63,73,69,63,100,95,78,29.98,29.75,20,3,22,0.75
2013-11-1,74,64,53,64,59,52,100,87,52,29.96,29.84,13,2,13,0.27
2013-11-2,71,60,52,56,52,45,99,76,40,30.20,29.94,16,2,16,0.04
2013-11-3,66,53,42,51,46,41,98,80,49,30.27,30.12,14,1,14,0.01
2013-11-4,76,62,46,62,55,45,99,80,56,30.22,30.10,15,2,16,0.00
2013-11-5,76,68,61,67,63,58,94,84,73,30.18,30.09,18,4,18,0.01
2013-11-6,80,71,61,74,68,60,99,91,78,30.12,30.03,11,2,16,0.00
2013-11-7,68,57,48,66,50,43,97,77,50,30.35,30.12,17,4,19,0.00
2013-11-8,65,52,43,48,43,39,96,72,41,30.38,30.21,14,1,15,0.00
2013-11-9,72,58,43,58,51,42,98,80,55,30.27,30.16,8,1,8,0.00
2013-11-10,76,63,52,59,55,51,96,78,51,30.29,30.17,9,1,9,0.00
2013-11-11,75,59,46,59,53,46,100,81,49,30.27,30.14,8,0,8,0.00
2013-11-12,71,53,39,59,47,32,100,81,59,30.55,30.20,20,3,21,0.00
2013-11-13,57,42,33,36,30,27,93,66,31,30.59,30.43,13,2,13,0.00
2013-11-14,66,50,33,52,42,30,95,75,53,30.44,30.13,10,1,10,0.19
2013-11-15,74,63,56,67,60,52,98,90,76,30.14,29.96,9,2,10,0.03
2013-11-16,81,71,64,72,68,63,100,90,71,30.04,29.89,13,2,13,0.01
2013-11-17,82,75,70,77,73,69,99,94,83,29.95,29.85,16,2,16,0.00
2013-11-18,78,70,56,74,57,44,100,66,34,30.12,29.94,16,1,20,0.01
2013-11-19,66,55,45,45,40,34,78,60,32,30.20,30.06,9,1,26,0.29
2013-11-20,73,55,41,51,44,36,95,69,37,30.13,30.01,9,1,9,0.00
2013-11-21,72,65,52,68,63,50,99,95,88,30.18,30.09,13,3,14,0.00
2013-11-22,73,68,63,69,66,63,99,94,80,30.25,30.13,13,1,13,0.04
2013-11-23,64,54,46,64,53,42,99,96,85,30.39,30.18,19,3,19,0.06
2013-11-24,54,45,39,42,33,30,88,64,41,30.45,30.31,14,2,14,0.00
2013-11-25,46,43,42,45,38,29,98,82,59,30.34,29.93,17,3,17,0.28
2013-11-26,48,43,40,47,42,39,99,96,93,30.14,29.80,27,6,27,0.90
2013-11-27,47,40,30,39,32,27,95,76,51,30.46,30.14,16,4,17,0.00
2013-11-28,49,36,26,34,29,24,96,79,49,30.54,30.44,11,1,11,0.00
2013-11-29,61,41,26,37,31,25,99,73,31,30.59,30.44,11,1,11,0.01
2013-11-30,66,45,29,42,34,28,99,72,26,30.49,30.29,7,0,7,0.00
2013-12-1,72,54,34,54,46,33,99,77,51,30.32,30.01,8,1,8,0.00
2013-12-2,76,64,55,65,60,51,98,86,65,30.03,29.75,21,2,21,0.00
2013-12-3,81,70,60,70,66,59,100,89,59,29.80,29.68,20,3,20,0.00
2013-12-4,82,74,70,72,70,69,97,90,72,29.90,29.79,16,2,16,0.00
2013-12-5,83,76,63,74,72,59,98,89,68,30.00,29.88,19,3,19,0.01
2013-12-6,62,47,39,59,46,37,100,97,92,30.29,29.93,17,5,20,0.12
2013-12-7,39,37,35,37,35,32,98,93,88,30.38,30.27,16,3,16,0.00
2013-12-8,44,41,37,44,40,37,99,99,98,30.28,30.05,10,2,10,1.26
2013-12-9,49,46,39,48,45,38,99,98,94,30.20,30.07,16,2,16,0.04
2013-12-10,50,41,35,38,36,33,97,84,60,30.43,30.20,21,4,21,0.00
2013-12-11,50,42,32,44,38,31,97,85,72,30.47,30.36,10,1,10,0.00
2013-12-12,56,44,35,38,34,30,90,71,40,30.56,30.39,11,1,11,0.00
2013-12-13,61,49,35,57,41,28,88,75,64,30.39,29.92,12,2,12,0.00
2013-12-14,68,60,48,65,57,44,99,89,81,30.15,29.83,23,4,23,0.55
2013-12-15,51,44,33,44,38,32,96,79,63,30.35,30.15,20,4,21,0.00
2013-12-16,63,43,29,42,35,28,99,78,33,30.40,30.25,8,0,8,0.01
2013-12-17,66,46,30,47,39,29,99,80,44,30.38,30.25,11,1,11,0.00
2013-12-18,68,50,33,50,41,32,99,76,42,30.39,30.22,12,1,12,0.00
2013-12-19,73,61,42,62,55,40,96,82,61,30.23,30.00,14,2,14,0.00
2013-12-20,79,71,64,70,66,61,99,87,70,30.04,29.91,15,3,19,0.00
2013-12-21,80,73,61,72,69,60,98,87,72,29.91,29.68,30,6,30,0.25
2013-12-22,66,60,48,62,57,45,99,91,75,30.23,29.81,17,2,18,0.48
2013-12-23,48,42,33,45,36,30,90,80,62,30.54,30.21,18,5,18,0.00
2013-12-24,54,39,28,35,32,27,97,76,47,30.61,30.40,12,1,13,0.01
2013-12-25,50,40,31,34,31,26,88,71,49,30.47,30.35,9,2,9,0.00
2013-12-26,59,45,32,40,35,30,93,70,44,30.47,30.31,10,1,10,0.00
2013-12-27,55,48,42,40,38,35,85,68,47,30.48,30.32,9,1,9,0.00
2013-12-28,49,46,44,48,44,37,98,92,65,30.34,30.03,12,2,12,0.56
2013-12-29,60,49,41,47,44,40,99,85,51,30.18,30.04,10,2,10,0.00
2013-12-30,52,46,40,48,43,39,98,90,82,30.40,30.16,11,2,11,0.00
2013-12-31,47,43,39,41,39,36,90,84,72,30.45,30.32,9,1,9,0.00
2014-1-1,58,51,44,55,49,41,99,94,86,30.33,30.04,9,1,9,0.20
2014-1-2,56,50,36,56,43,28,100,78,53,30.42,29.99,24,5,26,0.02